createdAt,value
2019-06-26T00:01:35.210Z,12.93
2019-06-26T00:04:03.969Z,10.80
2019-06-26T00:06:32.565Z,10.65
2019-06-26T00:09:01.322Z,11.33
2019-06-26T00:11:29.780Z,13.28
2019-06-26T00:13:58.298Z,13.28
2019-06-26T00:16:27.085Z,11.43
2019-06-26T00:18:56.461Z,11.12
2019-06-26T00:21:24.918Z,10.60
2019-06-26T00:23:53.352Z,10.98
2019-06-26T00:26:21.802Z,11.00
2019-06-26T00:28:50.261Z,10.40
2019-06-26T00:31:18.765Z,11.30
2019-06-26T00:33:47.204Z,10.55
2019-06-26T00:36:15.998Z,10.85
2019-06-26T00:38:44.430Z,10.38
2019-06-26T00:41:12.870Z,9.85
2019-06-26T00:44:00.677Z,11.00
2019-06-26T00:46:29.134Z,10.38
2019-06-26T00:48:57.863Z,11.18
2019-06-26T00:51:26.378Z,11.73
2019-06-26T00:53:55.133Z,11.03
2019-06-26T00:56:23.564Z,10.93
2019-06-26T00:58:52.041Z,12.35
2019-06-26T01:01:20.499Z,12.78
2019-06-26T01:03:50.958Z,11.53
2019-06-26T01:06:24.637Z,10.68
2019-06-26T01:08:53.409Z,10.63
2019-06-26T01:11:41.287Z,11.97
2019-06-26T01:14:10.038Z,11.63
2019-06-26T01:16:38.940Z,11.30
2019-06-26T01:19:07.345Z,12.07
2019-06-26T01:21:36.102Z,11.28
2019-06-26T01:24:04.999Z,11.20
2019-06-26T01:26:33.449Z,10.85
2019-06-26T01:29:02.232Z,11.90
2019-06-26T01:31:30.789Z,16.10
2019-06-26T01:33:59.232Z,11.35
2019-06-26T01:36:27.677Z,10.88
2019-06-26T01:38:56.123Z,11.80
2019-06-26T01:41:24.562Z,12.18
2019-06-26T01:43:53.291Z,12.75
2019-06-26T01:46:22.073Z,12.30
2019-06-26T01:48:50.953Z,11.50
2019-06-26T01:51:19.500Z,11.08
2019-06-26T01:53:48.252Z,10.48
2019-06-26T01:56:16.714Z,10.88
2019-06-26T01:58:45.147Z,12.35
2019-06-26T02:01:13.984Z,10.50
2019-06-26T02:03:42.519Z,10.18
2019-06-26T02:06:10.959Z,10.35
2019-06-26T02:08:39.382Z,10.43
2019-06-26T02:11:08.175Z,10.25
2019-06-26T02:13:36.950Z,10.50
2019-06-26T02:16:06.561Z,10.23
2019-06-26T02:18:42.326Z,10.40
2019-06-26T02:21:10.770Z,11.57
2019-06-26T02:23:39.485Z,11.25
2019-06-26T02:26:28.237Z,10.43
2019-06-26T02:28:56.684Z,10.93
2019-06-26T02:31:25.123Z,10.38
2019-06-26T02:33:53.935Z,10.75
2019-06-26T02:36:22.694Z,10.93
2019-06-26T02:38:51.478Z,9.85
2019-06-26T02:41:20.665Z,13.95
2019-06-26T02:43:49.677Z,11.30
2019-06-26T02:46:18.118Z,13.72
2019-06-26T02:48:46.644Z,13.88
2019-06-26T02:51:15.440Z,12.85
2019-06-26T02:53:44.294Z,11.95
2019-06-26T02:56:12.756Z,12.50
2019-06-26T02:58:41.207Z,11.97
2019-06-26T03:01:09.997Z,10.98
2019-06-26T03:03:38.606Z,10.68
2019-06-26T03:06:26.538Z,11.53
2019-06-26T03:08:55.311Z,11.75
2019-06-26T03:11:23.745Z,15.45
2019-06-26T03:13:52.198Z,12.63
2019-06-26T03:16:20.632Z,12.65
2019-06-26T03:18:51.416Z,13.30
2019-06-26T03:21:19.908Z,12.68
2019-06-26T03:23:48.669Z,12.63
2019-06-26T03:26:17.109Z,14.60
2019-06-26T03:28:45.557Z,13.53
2019-06-26T03:31:14.018Z,13.58
2019-06-26T03:33:42.471Z,12.68
2019-06-26T03:36:11.306Z,13.98
2019-06-26T03:38:40.107Z,13.13
2019-06-26T03:41:08.620Z,14.25
2019-06-26T03:43:37.135Z,13.68
2019-06-26T03:46:05.623Z,13.93
2019-06-26T03:48:34.097Z,13.55
2019-06-26T03:51:02.550Z,13.50
2019-06-26T03:53:31.325Z,14.23
2019-06-26T03:55:59.761Z,13.22
2019-06-26T03:58:28.285Z,12.93
2019-06-26T04:00:56.732Z,12.50
2019-06-26T04:03:25.170Z,12.78
2019-06-26T04:05:53.942Z,12.65
2019-06-26T04:08:22.733Z,13.08
2019-06-26T04:10:51.189Z,14.00
2019-06-26T04:13:19.957Z,13.10
2019-06-26T04:15:50.927Z,12.43
2019-06-26T04:18:18.651Z,13.88
2019-06-26T04:20:47.487Z,11.75
2019-06-26T04:23:16.093Z,11.40
2019-06-26T04:25:44.922Z,11.22
2019-06-26T04:28:13.405Z,15.25
2019-06-26T04:31:01.204Z,12.58
2019-06-26T04:33:29.900Z,13.00
2019-06-26T04:35:58.622Z,14.45
2019-06-26T04:38:27.380Z,12.58
2019-06-26T04:40:56.171Z,10.98
2019-06-26T04:43:24.632Z,16.50
2019-06-26T04:45:58.106Z,10.63
2019-06-26T04:48:23.280Z,11.68
2019-06-26T04:50:51.717Z,10.03
2019-06-26T04:53:20.152Z,9.65
2019-06-26T04:55:48.581Z,11.08
2019-06-26T04:58:17.326Z,8.80
2019-06-26T05:00:46.097Z,11.28
2019-06-26T05:03:14.893Z,7.95
2019-06-26T05:05:44.540Z,11.08
2019-06-26T05:08:32.477Z,7.83
2019-06-26T05:11:03.786Z,8.88
2019-06-26T05:13:32.535Z,11.35
2019-06-26T05:16:14.324Z,11.83
2019-06-26T05:18:31.617Z,9.55
2019-06-26T05:21:04.397Z,15.63
2019-06-26T05:23:32.844Z,15.70
2019-06-26T05:26:01.570Z,13.55
2019-06-26T05:28:30.012Z,13.90
2019-06-26T05:30:58.448Z,12.63
2019-06-26T05:33:26.911Z,9.88
2019-06-26T05:35:55.336Z,10.25
2019-06-26T05:38:24.093Z,9.73
2019-06-26T05:40:52.525Z,11.50
2019-06-26T05:43:21.286Z,7.87
2019-06-26T05:45:49.774Z,9.83
2019-06-26T05:48:37.552Z,7.80
2019-06-26T05:51:06.231Z,11.78
2019-06-26T05:53:34.674Z,9.05
2019-06-26T05:56:03.280Z,8.93
2019-06-26T05:58:31.786Z,7.47
2019-06-26T06:01:00.223Z,7.92
2019-06-26T06:03:29.006Z,12.47
2019-06-26T06:05:57.792Z,8.35
2019-06-26T06:08:26.230Z,11.08
2019-06-26T06:10:58.002Z,7.60
2019-06-26T06:13:25.092Z,11.03
2019-06-26T06:15:53.516Z,8.00
2019-06-26T06:18:21.956Z,8.58
2019-06-26T06:20:50.395Z,11.75
2019-06-26T06:23:19.142Z,15.98
2019-06-26T06:25:47.929Z,8.23
2019-06-26T06:28:16.353Z,9.78
2019-06-26T06:30:44.793Z,7.92
2019-06-26T06:33:13.254Z,12.28
2019-06-26T06:35:41.693Z,10.50
2019-06-26T06:38:10.125Z,8.13
2019-06-26T06:40:38.853Z,9.40
2019-06-26T06:43:07.287Z,7.67
2019-06-26T06:45:35.804Z,11.35
2019-06-26T06:48:07.352Z,12.75
2019-06-26T06:50:35.852Z,9.40
2019-06-26T06:53:04.349Z,8.15
2019-06-26T06:55:32.862Z,8.60
2019-06-26T06:58:01.616Z,7.92
2019-06-26T07:00:30.070Z,7.35
2019-06-26T07:02:58.488Z,9.48
2019-06-26T07:05:27.275Z,8.73
2019-06-26T07:07:55.702Z,7.87
2019-06-26T07:10:24.148Z,9.65
2019-06-26T07:12:52.580Z,7.42
2019-06-26T07:15:21.537Z,7.33
2019-06-26T07:17:50.159Z,9.43
2019-06-26T07:20:19.327Z,7.53
2019-06-26T07:22:47.771Z,8.18
2019-06-26T07:25:16.557Z,13.18
2019-06-26T07:27:45.264Z,10.03
2019-06-26T07:30:14.139Z,6.42
2019-06-26T07:32:42.883Z,11.05
2019-06-26T07:35:12.065Z,10.10
2019-06-26T07:37:40.492Z,6.83
2019-06-26T07:40:09.380Z,7.87
2019-06-26T07:42:37.878Z,6.50
2019-06-26T07:45:06.748Z,8.10
2019-06-26T07:47:43.077Z,6.40
2019-06-26T07:50:06.848Z,12.80
2019-06-26T07:52:35.657Z,7.95
2019-06-26T07:55:06.268Z,6.47
2019-06-26T07:57:34.743Z,6.97
2019-06-26T08:00:03.524Z,7.05
2019-06-26T08:02:32.058Z,9.68
2019-06-26T08:05:00.497Z,6.67
2019-06-26T08:07:28.932Z,8.45
2019-06-26T08:09:57.724Z,6.70
2019-06-26T08:12:26.406Z,6.28
2019-06-26T08:14:54.832Z,5.75
2019-06-26T08:17:23.276Z,5.65
2019-06-26T08:19:52.628Z,5.60
2019-06-26T08:22:21.069Z,5.75
2019-06-26T08:24:49.505Z,8.98
2019-06-26T08:27:17.953Z,6.45
2019-06-26T08:29:46.376Z,7.87
2019-06-26T08:32:15.103Z,5.65
2019-06-26T08:34:43.541Z,7.28
2019-06-26T08:37:11.967Z,5.50
2019-06-26T08:39:40.664Z,4.90
2019-06-26T08:42:09.097Z,5.65
2019-06-26T08:44:37.537Z,9.58
2019-06-26T08:47:05.964Z,8.45
2019-06-26T08:49:34.446Z,9.95
2019-06-26T08:52:03.085Z,5.47
2019-06-26T08:54:31.777Z,8.80
2019-06-26T08:57:00.359Z,8.65
2019-06-26T08:59:29.012Z,6.20
2019-06-26T09:01:57.471Z,5.83
2019-06-26T09:04:26.100Z,6.30
2019-06-26T09:06:54.564Z,7.97
2019-06-26T09:09:23.048Z,5.95
2019-06-26T09:11:52.256Z,7.75
2019-06-26T09:14:20.697Z,8.65
2019-06-26T09:16:49.475Z,8.20
2019-06-26T09:19:18.273Z,7.12
2019-06-26T09:21:46.702Z,6.10
2019-06-26T09:24:15.221Z,7.60
2019-06-26T09:26:43.659Z,9.70
2019-06-26T09:29:12.176Z,8.33
2019-06-26T09:31:40.593Z,8.28
2019-06-26T09:34:09.386Z,6.90
2019-06-26T09:36:37.808Z,8.08
2019-06-26T09:39:08.605Z,8.30
2019-06-26T09:41:37.094Z,7.95
2019-06-26T09:44:05.989Z,9.83
2019-06-26T09:46:34.789Z,11.90
2019-06-26T09:49:03.303Z,8.38
2019-06-26T09:51:31.862Z,9.25
2019-06-26T09:54:00.647Z,8.83
2019-06-26T09:56:29.142Z,8.05
2019-06-26T09:58:57.632Z,7.83
2019-06-26T10:01:26.410Z,7.83
2019-06-26T10:03:55.319Z,7.30
2019-06-26T10:06:23.840Z,9.45
2019-06-26T10:08:54.394Z,9.40
2019-06-26T10:11:22.705Z,9.33
2019-06-26T10:13:51.141Z,7.80
2019-06-26T10:16:19.880Z,6.92
2019-06-26T10:18:48.390Z,10.03
2019-06-26T10:21:17.079Z,7.53
2019-06-26T10:23:45.863Z,8.43
2019-06-26T10:26:14.405Z,10.38
2019-06-26T10:28:43.124Z,7.03
2019-06-26T10:31:31.146Z,8.63
2019-06-26T10:33:59.628Z,9.38
2019-06-26T10:36:28.071Z,6.90
2019-06-26T10:39:18.625Z,10.40
2019-06-26T10:41:55.412Z,9.83
2019-06-26T10:44:24.256Z,9.50
2019-06-26T10:46:53.202Z,7.22
2019-06-26T10:49:27.030Z,15.72
2019-06-26T10:51:51.809Z,7.37
2019-06-26T10:54:20.235Z,8.50
2019-06-26T10:56:48.685Z,9.45
2019-06-26T10:59:17.134Z,11.97
2019-06-26T11:01:45.585Z,8.85
2019-06-26T11:04:14.352Z,9.68
2019-06-26T11:06:42.789Z,9.18
2019-06-26T11:09:11.550Z,9.18
2019-06-26T11:11:40.317Z,9.58
2019-06-26T11:14:08.758Z,10.23
2019-06-26T11:16:37.185Z,8.08
2019-06-26T11:19:08.856Z,13.08
2019-06-26T11:21:37.297Z,8.15
2019-06-26T11:24:05.800Z,10.03
2019-06-26T11:26:34.494Z,10.10
2019-06-26T11:29:03.296Z,8.70
2019-06-26T11:31:31.726Z,7.78
2019-06-26T11:34:00.233Z,6.78
2019-06-26T11:36:28.676Z,10.00
2019-06-26T11:38:57.173Z,9.60
2019-06-26T11:41:25.917Z,9.83
2019-06-26T11:43:54.361Z,9.90
2019-06-26T11:46:23.295Z,7.72
2019-06-26T11:48:52.110Z,10.30
2019-06-26T11:51:20.660Z,7.20
2019-06-26T11:53:49.366Z,11.28
2019-06-26T11:56:17.828Z,6.65
2019-06-26T11:58:46.382Z,10.63
2019-06-26T12:01:15.128Z,6.50
2019-06-26T12:03:43.665Z,14.23
2019-06-26T12:06:18.621Z,5.95
2019-06-26T12:08:42.567Z,6.20
2019-06-26T12:11:11.344Z,6.15
2019-06-26T12:13:39.876Z,8.03
2019-06-26T12:16:08.622Z,8.63
2019-06-26T12:18:37.075Z,9.18
2019-06-26T12:21:05.741Z,8.10
2019-06-26T12:23:34.466Z,11.88
2019-06-26T12:26:03.159Z,6.92
2019-06-26T12:28:31.593Z,5.42
2019-06-26T12:31:00.017Z,8.15
2019-06-26T12:33:28.469Z,8.20
2019-06-26T12:35:56.898Z,7.80
2019-06-26T12:38:26.257Z,6.85
2019-06-26T12:40:54.898Z,9.23
2019-06-26T12:43:23.414Z,6.05
2019-06-26T12:45:51.841Z,7.08
2019-06-26T12:48:20.295Z,7.85
2019-06-26T12:50:48.744Z,7.35
2019-06-26T12:53:17.197Z,6.45
2019-06-26T12:55:45.894Z,6.03
2019-06-26T12:58:19.458Z,6.28
2019-06-26T13:00:44.834Z,10.08
2019-06-26T13:03:14.289Z,4.70
2019-06-26T13:06:02.375Z,6.60
2019-06-26T13:08:30.865Z,6.17
2019-06-26T13:10:59.313Z,8.43
2019-06-26T13:13:28.959Z,7.65
2019-06-26T13:15:57.475Z,4.53
2019-06-26T13:18:26.359Z,6.42
2019-06-26T13:20:55.105Z,5.58
2019-06-26T13:23:23.833Z,4.37
2019-06-26T13:25:52.405Z,7.87
2019-06-26T13:28:21.169Z,6.78
2019-06-26T13:30:53.099Z,6.35
2019-06-26T13:33:19.822Z,5.90
2019-06-26T13:35:48.349Z,6.25
2019-06-26T13:38:17.908Z,7.85
2019-06-26T13:40:46.480Z,8.50
2019-06-26T13:43:15.367Z,6.00
2019-06-26T13:45:44.069Z,4.92
2019-06-26T13:48:13.421Z,8.30
2019-06-26T13:50:41.860Z,6.97
2019-06-26T13:53:10.635Z,5.85
2019-06-26T13:55:40.862Z,6.75
2019-06-26T13:58:09.328Z,5.62
2019-06-26T14:00:37.779Z,4.50
2019-06-26T14:03:06.215Z,5.60
2019-06-26T14:05:34.656Z,11.20
2019-06-26T14:08:03.396Z,7.78
2019-06-26T14:10:32.177Z,3.83
2019-06-26T14:13:01.800Z,8.75
2019-06-26T14:15:30.483Z,5.37
2019-06-26T14:17:58.924Z,5.92
2019-06-26T14:20:27.653Z,8.55
2019-06-26T14:22:56.080Z,8.98
2019-06-26T14:25:24.529Z,5.90
2019-06-26T14:27:53.317Z,7.53
2019-06-26T14:30:22.450Z,6.20
2019-06-26T14:32:51.857Z,4.65
2019-06-26T14:35:20.382Z,6.87
2019-06-26T14:37:48.808Z,4.12
2019-06-26T14:40:17.434Z,5.37
2019-06-26T14:42:45.938Z,5.33
2019-06-26T14:45:16.110Z,6.58
2019-06-26T14:47:44.536Z,4.78
2019-06-26T14:50:13.572Z,5.50
2019-06-26T14:52:45.032Z,5.60
2019-06-26T14:55:12.690Z,5.50
2019-06-26T14:57:41.117Z,4.65
2019-06-26T15:00:10.481Z,4.05
2019-06-26T15:02:39.183Z,7.30
2019-06-26T15:05:09.300Z,9.73
2019-06-26T15:07:37.725Z,4.92
2019-06-26T15:10:09.917Z,7.75
2019-06-26T15:12:38.636Z,6.08
2019-06-26T15:15:08.484Z,6.70
2019-06-26T15:17:36.909Z,7.83
2019-06-26T15:20:08.419Z,7.22
2019-06-26T15:22:37.093Z,6.40
2019-06-26T15:25:09.825Z,6.05
2019-06-26T15:27:38.254Z,8.10
2019-06-26T15:30:26.034Z,6.65
2019-06-26T15:32:54.761Z,5.65
2019-06-26T15:35:42.558Z,7.45
2019-06-26T15:38:10.981Z,9.55
2019-06-26T15:40:39.440Z,11.48
2019-06-26T15:43:08.146Z,8.10
2019-06-26T15:45:36.584Z,5.72
2019-06-26T15:48:05.334Z,5.42
2019-06-26T15:50:34.118Z,5.10
2019-06-26T15:53:02.909Z,6.75
2019-06-26T15:55:32.391Z,8.30
2019-06-26T15:58:00.887Z,7.25
2019-06-26T16:00:29.710Z,9.63
2019-06-26T16:02:58.210Z,7.37
2019-06-26T16:05:26.975Z,7.45
2019-06-26T16:07:56.324Z,6.42
2019-06-26T16:10:24.797Z,6.37
2019-06-26T16:12:53.473Z,7.12
2019-06-26T16:15:22.411Z,11.43
2019-06-26T16:17:55.737Z,7.95
2019-06-26T16:20:24.216Z,6.28
2019-06-26T16:22:53.176Z,8.53
2019-06-26T16:25:23.186Z,9.63
2019-06-26T16:28:04.611Z,6.70
2019-06-26T16:30:22.106Z,11.88
2019-06-26T16:32:50.536Z,7.90
2019-06-26T16:35:19.893Z,8.75
2019-06-26T16:37:48.323Z,7.22
2019-06-26T16:40:16.768Z,5.17
2019-06-26T16:42:45.282Z,6.15
2019-06-26T16:45:14.103Z,6.58
2019-06-26T16:47:44.461Z,5.47
2019-06-26T16:50:13.218Z,6.10
2019-06-26T16:52:49.337Z,5.25
2019-06-26T16:55:12.420Z,5.62
2019-06-26T16:57:40.869Z,7.40
2019-06-26T17:00:10.412Z,7.37
2019-06-26T17:02:39.918Z,4.85
2019-06-26T17:05:09.068Z,5.58
2019-06-26T17:07:37.505Z,4.97
2019-06-26T17:10:07.650Z,6.55
2019-06-26T17:12:36.998Z,6.45
2019-06-26T17:15:07.169Z,6.45
2019-06-26T17:17:35.620Z,6.92
2019-06-26T17:20:04.993Z,6.15
2019-06-26T17:22:33.750Z,5.45
2019-06-26T17:25:02.425Z,7.37
2019-06-26T17:27:31.012Z,8.30
2019-06-26T17:29:59.468Z,4.72
2019-06-26T17:32:27.905Z,4.60
2019-06-26T17:34:56.353Z,5.00
2019-06-26T17:37:24.781Z,13.62
2019-06-26T17:40:12.737Z,8.05
2019-06-26T17:42:41.162Z,6.37
2019-06-26T17:45:10.295Z,6.65
2019-06-26T17:47:38.739Z,6.37
2019-06-26T17:50:08.812Z,6.87
2019-06-26T17:52:38.596Z,7.72
2019-06-26T17:55:10.059Z,9.33
2019-06-26T17:57:38.574Z,7.15
2019-06-26T18:00:07.653Z,5.28
2019-06-26T18:02:36.432Z,5.65
2019-06-26T18:05:07.409Z,8.63
2019-06-26T18:07:35.855Z,5.37
2019-06-26T18:10:06.271Z,6.00
2019-06-26T18:12:35.746Z,6.83
2019-06-26T18:15:07.719Z,11.70
2019-06-26T18:17:36.955Z,9.23
2019-06-26T18:20:07.144Z,7.30
2019-06-26T18:22:35.876Z,6.40
2019-06-26T18:25:06.610Z,7.55
2019-06-26T18:27:35.384Z,9.10
2019-06-26T18:30:08.365Z,9.20
2019-06-26T18:32:36.876Z,8.03
2019-06-26T18:35:06.256Z,8.58
2019-06-26T18:37:35.631Z,6.65
2019-06-26T18:40:05.563Z,6.05
2019-06-26T18:42:33.989Z,5.30
2019-06-26T18:45:02.441Z,5.35
2019-06-26T18:47:32.189Z,9.75
2019-06-26T18:50:00.636Z,6.60
2019-06-26T18:52:29.066Z,9.38
2019-06-26T18:54:57.851Z,9.00
2019-06-26T18:57:26.280Z,7.17
2019-06-26T18:59:54.738Z,9.10
2019-06-26T19:02:23.623Z,9.33
2019-06-26T19:04:54.209Z,9.43
2019-06-26T19:07:23.898Z,5.28
2019-06-26T19:09:52.394Z,7.95
2019-06-26T19:12:20.824Z,4.33
2019-06-26T19:14:49.623Z,8.43
2019-06-26T19:17:18.061Z,6.65
2019-06-26T19:19:46.799Z,6.62
2019-06-26T19:22:15.252Z,7.22
2019-06-26T19:24:43.689Z,7.72
2019-06-26T19:27:12.120Z,5.83
2019-06-26T19:29:40.560Z,7.45
2019-06-26T19:32:09.360Z,9.35
2019-06-26T19:34:40.062Z,8.10
2019-06-26T19:37:09.668Z,9.18
2019-06-26T19:39:57.804Z,10.03
2019-06-26T19:42:27.440Z,8.43
2019-06-26T19:44:55.884Z,9.08
2019-06-26T19:47:24.589Z,10.35
2019-06-26T19:49:55.332Z,10.60
2019-06-26T19:52:23.766Z,15.15
2019-06-26T19:54:52.509Z,8.05
2019-06-26T19:57:21.310Z,6.33
2019-06-26T19:59:49.779Z,7.85
2019-06-26T20:02:18.473Z,8.65
2019-06-26T20:04:48.583Z,10.35
2019-06-26T20:07:18.049Z,10.50
2019-06-26T20:09:46.500Z,7.65
2019-06-26T20:12:15.833Z,10.45
2019-06-26T20:14:44.281Z,12.80
2019-06-26T20:17:12.726Z,13.80
2019-06-26T20:19:41.241Z,9.55
2019-06-26T20:22:10.050Z,10.82
2019-06-26T20:24:43.910Z,12.65
2019-06-26T20:27:08.695Z,13.80
2019-06-26T20:29:37.186Z,11.33
2019-06-26T20:32:07.617Z,10.60
2019-06-26T20:34:36.066Z,10.95
2019-06-26T20:37:04.837Z,14.73
2019-06-26T20:39:33.367Z,10.80
2019-06-26T20:42:02.122Z,11.28
2019-06-26T20:44:30.915Z,8.70
2019-06-26T20:47:01.667Z,13.85
2019-06-26T20:49:30.177Z,9.90
2019-06-26T20:51:59.023Z,10.58
2019-06-26T20:54:27.837Z,10.65
2019-06-26T20:56:57.287Z,16.42
2019-06-26T20:59:25.850Z,12.20
2019-06-26T21:01:54.320Z,13.32
2019-06-26T21:04:23.132Z,13.95
2019-06-26T21:06:52.604Z,11.70
2019-06-26T21:09:21.071Z,15.93
2019-06-26T21:11:49.565Z,15.53
2019-06-26T21:14:18.228Z,10.60
2019-06-26T21:16:46.661Z,12.70
2019-06-26T21:19:15.106Z,14.75
2019-06-26T21:21:43.651Z,18.70
2019-06-26T21:24:12.140Z,13.72
2019-06-26T21:26:41.589Z,13.18
2019-06-26T21:29:10.981Z,11.25
2019-06-26T21:31:40.365Z,14.73
2019-06-26T21:34:10.029Z,12.90
2019-06-26T21:36:58.065Z,12.00
2019-06-26T21:39:26.532Z,13.55
2019-06-26T21:41:55.024Z,14.00
2019-06-26T21:44:23.475Z,13.55
2019-06-26T21:46:56.197Z,14.00
2019-06-26T21:49:26.963Z,12.37
2019-06-26T21:51:55.440Z,12.50
2019-06-26T21:54:23.953Z,14.63
2019-06-26T21:56:53.368Z,13.30
2019-06-26T21:59:22.209Z,12.45
2019-06-26T22:01:50.910Z,12.98
2019-06-26T22:04:19.484Z,14.13
2019-06-26T22:06:47.912Z,12.63
2019-06-26T22:09:16.358Z,12.05
2019-06-26T22:11:44.794Z,14.03
2019-06-26T22:14:13.525Z,15.85
2019-06-26T22:16:42.316Z,13.10
2019-06-26T22:19:11.137Z,12.13
2019-06-26T22:21:39.585Z,10.30
2019-06-26T22:24:27.412Z,13.83
2019-06-26T22:26:56.214Z,14.03
2019-06-26T22:29:24.718Z,13.60
2019-06-26T22:31:53.156Z,14.45
2019-06-26T22:34:21.883Z,11.53
2019-06-26T22:36:52.009Z,11.22
2019-06-26T22:39:20.485Z,13.72
2019-06-26T22:41:50.986Z,16.12
2019-06-26T22:44:19.473Z,10.38
2019-06-26T22:46:47.925Z,11.65
2019-06-26T22:49:16.678Z,12.85
2019-06-26T22:51:45.113Z,14.23
2019-06-26T22:54:13.849Z,12.55
2019-06-26T22:56:42.641Z,10.23
2019-06-26T22:59:30.446Z,13.25
2019-06-26T23:01:58.901Z,12.25
2019-06-26T23:04:27.348Z,12.45
2019-06-26T23:06:56.044Z,10.48
2019-06-26T23:09:43.819Z,11.45
2019-06-26T23:12:12.337Z,11.03
2019-06-26T23:14:40.777Z,16.27
2019-06-26T23:17:09.535Z,13.25
2019-06-26T23:19:37.972Z,16.65
2019-06-26T23:22:06.571Z,15.63
2019-06-26T23:24:35.281Z,14.47
2019-06-26T23:27:04.070Z,12.30
2019-06-26T23:29:33.835Z,14.65
2019-06-26T23:32:03.468Z,12.35
2019-06-26T23:34:51.485Z,10.68
2019-06-26T23:37:19.933Z,19.60
2019-06-26T23:40:08.051Z,10.60
2019-06-26T23:42:38.455Z,14.73
2019-06-26T23:45:07.729Z,12.55
2019-06-26T23:47:36.469Z,14.30
2019-06-26T23:50:05.752Z,14.18
2019-06-26T23:52:34.483Z,12.30
2019-06-26T23:55:03.460Z,13.25
2019-06-26T23:57:32.259Z,13.00
